Grande Italia — IBTF — position and weather

sailwx.info

Track history (hours):
 
Tides and Currents Weather Stations Pressure Air Temp Water Temp Dewpoint Dewpoint Depression Visibility Wind Speed Wind Dir Waves Ship Positions

Grande Italia

Last reported at 2016-Apr-30 10:28 UTC. Time now 2016-Apr-30 11:13 UTC.
Position N 37°58' E 023°36'.

Length 177 m; draft 8.6 m.

Type: Cargo ship. MMSI: 247039300.

Date/timePositionNaut miles runAvg speedWind from/ knotsBaromVisibWave heightAir tempDewpointWater temp
2016-Apr-30 10:28N 37°58' E 023°36'0 0.0
2016-Apr-30 09:28N 37°58' E 023°36'0 0.0
2016-Apr-30 08:31N 37°58' E 023°36'0 0.0
2016-Apr-30 07:31N 37°58' E 023°36'0 0.0
2016-Apr-30 06:31N 37°58' E 023°36'0 0.0
2016-Apr-30 05:31N 37°58' E 023°36'0 0.3
2016-Apr-30 04:33N 37°57' E 023°36'4 4.4
2016-Apr-30 03:33N 37°53' E 023°38'1111.4
2016-Apr-30 02:33N 37°43' E 023°44'1515.4
2016-Apr-30 01:33N 37°28' E 023°41'1615.9
2016-Apr-30 00:33N 37°12' E 023°36'1616.0
2016-Apr-29 23:33N 36°57' E 023°32'1616.2
2016-Apr-29 22:33N 36°41' E 023°27'18412.8
2016-Apr-29 08:12N 38°17' E 020°09'1316.5
2016-Apr-29 07:27N 38°28' E 020°02'49616.0
2016-Apr-28 00:22N 44°59' E 013°12'1215.1
2016-Apr-27 23:33N 45°09' E 013°03'1414.4
2016-Apr-27 22:33N 45°23' E 013°03'16 0.6
2016-Apr-26 19:33N 45°31' E 013°24'1615.7
2016-Apr-26 18:33N 45°17' E 013°13'2316.6
2016-Apr-26 17:10N 44°56' E 012°59'1117.4
2016-Apr-26 16:33N 44°48' E 012°50'  
2016-Apr-24 09:23N 44°42' E 012°46'1214.8
2016-Apr-24 08:33N 44°52' E 012°55'1414.1
2016-Apr-24 07:33N 45°05' E 013°04'1414.3
2016-Apr-24 06:33N 45°19' E 013°02'8 0.3
2016-Apr-23 04:29N 45°23' E 013°12'15715.8
2016-Apr-22 18:32N 43°12' E 015°13'12117.4
2016-Apr-22 11:33N 42°19' E 017°42'1818.4
2016-Apr-22 10:34N 42°15' E 018°06'1818.2
2016-Apr-22 09:34N 42°11' E 018°30'1717.4
2016-Apr-22 08:34N 42°08' E 018°53'7 1.1
2016-Apr-22 02:30N 42°07' E 019°02'1213.2
2016-Apr-22 01:33N 41°54' E 019°02'1515.2
2016-Apr-22 00:33N 41°39' E 019°01'1515.4
2016-Apr-21 23:33N 41°24' E 018°59'1515.2
2016-Apr-21 22:33N 41°09' E 018°58'1616.0
2016-Apr-21 21:33N 40°53' E 018°58'6215.5
2016-Apr-21 17:33N 39°51' E 019°10'14015.5
2016-Apr-21 08:32N 37°43' E 020°23'16212.5
2016-Apr-20 19:33N 36°46' E 023°33'1615.5
2016-Apr-20 18:33N 36°58' E 023°45'1515.6
2016-Apr-20 17:33N 37°10' E 023°58'1615.6
2016-Apr-20 16:32N 37°22' E 024°11'2115.4
2016-Apr-20 15:09N 37°39' E 024°26'915.7
2016-Apr-20 14:33N 37°48' E 024°31'  
Track history (hours):
 
Tides and Currents Weather Stations Pressure Air Temp Water Temp Dewpoint Dewpoint Depression Visibility Wind Speed Wind Dir Waves Ship Positions

Grande Italia

Last reported at 2016-Apr-30 10:28 UTC. Time now 2016-Apr-30 11:13 UTC.
Position N 37°58' E 023°36'.

Length 177 m; draft 8.6 m.

Type: Cargo ship. MMSI: 247039300.

Date/timePositionNaut miles runAvg speedWind from/ knotsBaromVisibWave heightAir tempDewpointWater temp
2016-Apr-30 10:28N 37°58' E 023°36'0 0.0
2016-Apr-30 09:28N 37°58' E 023°36'0 0.0
2016-Apr-30 08:31N 37°58' E 023°36'0 0.0
2016-Apr-30 07:31N 37°58' E 023°36'0 0.0
2016-Apr-30 06:31N 37°58' E 023°36'0 0.0
2016-Apr-30 05:31N 37°58' E 023°36'0 0.3
2016-Apr-30 04:33N 37°57' E 023°36'4 4.4
2016-Apr-30 03:33N 37°53' E 023°38'1111.4
2016-Apr-30 02:33N 37°43' E 023°44'1515.4
2016-Apr-30 01:33N 37°28' E 023°41'1615.9
2016-Apr-30 00:33N 37°12' E 023°36'1616.0
2016-Apr-29 23:33N 36°57' E 023°32'1616.2
2016-Apr-29 22:33N 36°41' E 023°27'18412.8
2016-Apr-29 08:12N 38°17' E 020°09'1316.5
2016-Apr-29 07:27N 38°28' E 020°02'49616.0
2016-Apr-28 00:22N 44°59' E 013°12'1215.1
2016-Apr-27 23:33N 45°09' E 013°03'1414.4
2016-Apr-27 22:33N 45°23' E 013°03'16 0.6
2016-Apr-26 19:33N 45°31' E 013°24'1615.7
2016-Apr-26 18:33N 45°17' E 013°13'2316.6
2016-Apr-26 17:10N 44°56' E 012°59'1117.4
2016-Apr-26 16:33N 44°48' E 012°50'  
2016-Apr-24 09:23N 44°42' E 012°46'1214.8
2016-Apr-24 08:33N 44°52' E 012°55'1414.1
2016-Apr-24 07:33N 45°05' E 013°04'1414.3
2016-Apr-24 06:33N 45°19' E 013°02'8 0.3
2016-Apr-23 04:29N 45°23' E 013°12'15715.8
2016-Apr-22 18:32N 43°12' E 015°13'12117.4
2016-Apr-22 11:33N 42°19' E 017°42'1818.4
2016-Apr-22 10:34N 42°15' E 018°06'1818.2
2016-Apr-22 09:34N 42°11' E 018°30'1717.4
2016-Apr-22 08:34N 42°08' E 018°53'7 1.1
2016-Apr-22 02:30N 42°07' E 019°02'1213.2
2016-Apr-22 01:33N 41°54' E 019°02'1515.2
2016-Apr-22 00:33N 41°39' E 019°01'1515.4
2016-Apr-21 23:33N 41°24' E 018°59'1515.2
2016-Apr-21 22:33N 41°09' E 018°58'1616.0
2016-Apr-21 21:33N 40°53' E 018°58'6215.5
2016-Apr-21 17:33N 39°51' E 019°10'14015.5
2016-Apr-21 08:32N 37°43' E 020°23'16212.5
2016-Apr-20 19:33N 36°46' E 023°33'1615.5
2016-Apr-20 18:33N 36°58' E 023°45'1515.6
2016-Apr-20 17:33N 37°10' E 023°58'1615.6
2016-Apr-20 16:32N 37°22' E 024°11'2115.4
2016-Apr-20 15:09N 37°39' E 024°26'915.7
2016-Apr-20 14:33N 37°48' E 024°31'  

Dump ship's entire track history